Time;durP1;ratioP1;P1;durP2;ratioP2;P2;SDS_P1;SDS_P2;PMS_P1;PMS_P2;Temp;Humidity;BMP_temperature;BMP_pressure;BME280_temperature;BME280_humidity;BME280_pressure;Samples;Min_cycle;Max_cycle;Signal;HPM_P1;HPM_P2
2023/12/24 05:30:35;;;;;;;0.10;0.10;;;10.20;86.80;;;;;;5782149;23;20048;-81
2023/12/24 05:33:01;;;;;;;0.10;0.10;;;10.20;86.90;;;;;;4943790;29;20450;-81
2023/12/24 05:35:27;;;;;;;0.10;0.10;;;10.20;87.00;;;;;;4929073;29;20032;-80
2023/12/24 05:37:52;;;;;;;0.10;0.10;;;10.20;87.00;;;;;;4946407;29;20028;-80
2023/12/24 05:40:18;;;;;;;0.10;0.10;;;10.20;87.20;;;;;;4928759;29;20500;-81
2023/12/24 05:42:44;;;;;;;0.10;0.10;;;10.20;87.20;;;;;;4941212;29;20031;-80
2023/12/24 05:45:11;;;;;;;0.10;0.10;;;10.20;87.20;;;;;;4934725;29;20103;-81
2023/12/24 05:47:36;;;;;;;0.10;0.10;;;10.20;87.20;;;;;;4920906;29;20036;-81
2023/12/24 05:50:04;;;;;;;0.10;0.10;;;10.20;87.10;;;;;;4939015;29;20418;-81
2023/12/24 05:52:30;;;;;;;0.10;0.10;;;10.20;87.10;;;;;;4917946;29;20032;-81
2023/12/24 05:54:55;;;;;;;0.10;0.10;;;10.20;87.20;;;;;;4919835;29;20060;-80
2023/12/24 05:57:21;;;;;;;0.10;0.10;;;10.20;87.20;;;;;;4919671;29;20070;-81
2023/12/24 05:59:47;;;;;;;0.10;0.10;;;10.20;87.30;;;;;;4920044;29;20029;-81
2023/12/24 06:02:12;;;;;;;0.10;0.10;;;10.20;87.30;;;;;;4933992;29;20083;-81
2023/12/24 06:04:38;;;;;;;0.10;0.10;;;10.20;87.20;;;;;;4917464;29;20124;-82
2023/12/24 06:07:04;;;;;;;0.10;0.10;;;10.20;87.20;;;;;;4946597;29;20057;-81
2023/12/24 06:09:30;;;;;;;0.10;0.10;;;10.10;87.20;;;;;;4936128;29;20558;-81
2023/12/24 06:11:56;;;;;;;0.10;0.10;;;10.20;87.10;;;;;;4918606;29;20064;-82
2023/12/24 06:14:21;;;;;;;0.10;0.10;;;10.10;87.30;;;;;;4919779;29;20095;-82
2023/12/24 06:16:47;;;;;;;0.15;0.15;;;10.10;87.20;;;;;;4901948;29;20032;-82
2023/12/24 06:19:13;;;;;;;0.10;0.10;;;10.10;87.30;;;;;;4919402;29;20020;-81
2023/12/24 06:21:39;;;;;;;0.10;0.10;;;10.10;87.30;;;;;;4922323;29;20090;-81
2023/12/24 06:24:05;;;;;;;0.10;0.10;;;10.10;87.40;;;;;;4921308;29;20240;-82
2023/12/24 06:26:32;;;;;;;0.10;0.10;;;10.10;87.50;;;;;;4921479;29;20470;-81
2023/12/24 06:28:58;;;;;;;0.10;0.10;;;10.10;87.40;;;;;;4930218;29;20020;-82
2023/12/24 06:31:24;;;;;;;0.10;0.10;;;10.20;87.40;;;;;;4925079;29;20427;-80
2023/12/24 06:33:52;;;;;;;0.10;0.10;;;10.20;87.40;;;;;;4934641;29;20073;-83
2023/12/24 06:36:18;;;;;;;0.10;0.10;;;10.20;87.40;;;;;;4937374;29;20035;-83
2023/12/24 06:38:44;;;;;;;0.10;0.10;;;10.20;87.50;;;;;;4927360;29;20080;-83
2023/12/24 06:41:09;;;;;;;0.13;0.13;;;10.10;87.70;;;;;;4941917;29;20036;-82
2023/12/24 06:43:37;;;;;;;0.20;0.20;;;10.10;87.80;;;;;;4932712;29;20067;-82
2023/12/24 06:46:03;;;;;;;0.10;0.10;;;10.20;87.90;;;;;;4934063;29;20048;-82
2023/12/24 06:48:28;;;;;;;0.10;0.10;;;10.20;88.00;;;;;;4929689;29;20425;-82
2023/12/24 06:50:54;;;;;;;0.20;0.20;;;10.20;87.90;;;;;;4919198;29;20079;-82
2023/12/24 06:53:19;;;;;;;0.10;0.10;;;10.20;88.00;;;;;;4918756;29;20184;-82
2023/12/24 06:55:45;;;;;;;0.13;0.13;;;10.30;88.00;;;;;;4933311;29;20091;-82
2023/12/24 06:58:11;;;;;;;0.10;0.10;;;10.30;88.00;;;;;;4917551;29;20047;-82
2023/12/24 07:00:36;;;;;;;0.13;0.13;;;10.20;88.00;;;;;;4933505;29;20032;-82
2023/12/24 07:03:02;;;;;;;0.10;0.10;;;10.30;88.20;;;;;;4927466;29;20087;-82
2023/12/24 07:05:34;;;;;;;0.10;0.10;;;10.30;88.20;;;;;;4924274;29;20028;-82
2023/12/24 07:08:00;;;;;;;0.10;0.10;;;10.30;88.10;;;;;;4918746;29;20028;-81
2023/12/24 07:10:26;;;;;;;0.10;0.10;;;10.30;88.20;;;;;;4918839;29;20586;-82
2023/12/24 07:12:51;;;;;;;0.13;0.13;;;10.40;88.20;;;;;;4930490;29;20088;-81
2023/12/24 07:15:17;;;;;;;0.10;0.10;;;10.50;88.10;;;;;;4918677;29;20036;-81
2023/12/24 07:17:43;;;;;;;0.10;0.10;;;10.60;88.10;;;;;;4918344;29;20047;-82
2023/12/24 07:20:09;;;;;;;0.10;0.10;;;10.60;88.10;;;;;;4918965;29;20436;-85
2023/12/24 07:22:35;;;;;;;0.10;0.10;;;10.60;88.00;;;;;;4918779;29;20028;-87
2023/12/24 07:25:01;;;;;;;0.10;0.10;;;10.70;87.90;;;;;;4936400;29;20063;-82
2023/12/24 07:27:26;;;;;;;0.10;0.10;;;10.70;87.80;;;;;;4937903;29;20542;-77
2023/12/24 07:29:52;;;;;;;0.10;0.10;;;10.80;87.80;;;;;;4933362;29;20426;-79
2023/12/24 07:32:18;;;;;;;0.10;0.10;;;10.80;87.80;;;;;;4920936;29;20144;-76
2023/12/24 07:34:50;;;;;;;0.10;0.10;;;10.80;87.60;;;;;;4936231;29;20015;-77
2023/12/24 07:37:17;;;;;;;0.10;0.10;;;10.90;87.60;;;;;;4933271;29;20454;-76
2023/12/24 07:39:43;;;;;;;0.10;0.10;;;11.00;87.50;;;;;;4937079;29;20020;-78
2023/12/24 07:42:08;;;;;;;0.15;0.15;;;11.00;87.50;;;;;;4937213;29;20045;-76
2023/12/24 07:44:34;;;;;;;0.13;0.13;;;10.90;87.50;;;;;;4926179;29;20059;-76
2023/12/24 07:47:00;;;;;;;0.10;0.10;;;10.90;87.50;;;;;;4936532;29;20035;-80
2023/12/24 07:49:26;;;;;;;0.10;0.10;;;10.90;87.60;;;;;;4936705;29;20102;-76
2023/12/24 07:51:52;;;;;;;0.10;0.10;;;10.90;87.50;;;;;;4912574;29;20039;-78
2023/12/24 07:54:18;;;;;;;0.10;0.10;;;10.90;87.40;;;;;;4917843;29;20032;-79
2023/12/24 07:56:43;;;;;;;0.10;0.10;;;10.90;87.50;;;;;;4900823;29;20784;-82
2023/12/24 07:59:09;;;;;;;0.10;0.10;;;10.90;87.40;;;;;;4916446;29;20059;-76
2023/12/24 08:01:37;;;;;;;0.10;0.10;;;10.80;87.40;;;;;;4920653;29;20470;-75
2023/12/24 08:04:03;;;;;;;0.10;0.10;;;10.80;87.40;;;;;;4930269;29;20028;-75
2023/12/24 08:06:29;;;;;;;0.10;0.10;;;10.80;87.40;;;;;;4916845;29;20043;-75
2023/12/24 08:08:58;;;;;;;0.10;0.10;;;10.80;87.50;;;;;;4916498;29;20040;-76
2023/12/24 08:11:24;;;;;;;0.10;0.10;;;10.80;87.50;;;;;;4917800;29;20127;-77
2023/12/24 08:13:49;;;;;;;0.10;0.10;;;10.80;87.50;;;;;;4920270;29;20495;-77
2023/12/24 08:16:15;;;;;;;0.10;0.10;;;10.80;87.30;;;;;;4931408;29;20118;-77
2023/12/24 08:18:41;;;;;;;0.20;0.20;;;10.80;87.40;;;;;;4927982;29;20032;-76
2023/12/24 08:21:10;;;;;;;0.10;0.10;;;10.80;87.30;;;;;;4926623;29;20060;-77
2023/12/24 08:23:39;;;;;;;0.10;0.10;;;10.80;87.30;;;;;;4921484;29;20028;-77
2023/12/24 08:26:05;;;;;;;0.10;0.10;;;10.80;87.30;;;;;;4933123;29;20082;-77
2023/12/24 08:28:31;;;;;;;0.20;0.20;;;10.90;87.30;;;;;;4933889;29;20040;-77
2023/12/24 08:30:57;;;;;;;0.10;0.10;;;10.90;87.20;;;;;;4914392;29;20059;-76
2023/12/24 08:33:22;;;;;;;0.10;0.10;;;11.00;87.20;;;;;;4932815;29;20032;-77
2023/12/24 08:35:48;;;;;;;0.10;0.10;;;11.00;87.20;;;;;;4931565;29;20067;-78
2023/12/24 08:38:14;;;;;;;0.10;0.10;;;11.10;87.10;;;;;;4934208;29;20890;-81
2023/12/24 08:40:39;;;;;;;0.10;0.10;;;11.20;87.20;;;;;;4937244;29;20031;-80
2023/12/24 08:43:05;;;;;;;0.10;0.10;;;11.20;87.10;;;;;;4933750;29;20036;-79
2023/12/24 08:45:31;;;;;;;0.17;0.17;;;11.20;87.00;;;;;;4940973;29;20399;-79
2023/12/24 08:47:57;;;;;;;0.10;0.10;;;11.30;86.90;;;;;;4934782;29;20031;-79
2023/12/24 08:50:23;;;;;;;0.10;0.10;;;11.30;86.90;;;;;;4940140;29;20472;-79
2023/12/24 08:52:49;;;;;;;0.10;0.10;;;11.40;86.80;;;;;;4938962;29;20120;-80
2023/12/24 08:55:15;;;;;;;0.20;0.20;;;11.40;86.80;;;;;;4934684;29;20040;-77
2023/12/24 08:57:41;;;;;;;0.10;0.10;;;11.50;86.80;;;;;;4929625;29;20027;-76
2023/12/24 09:00:11;;;;;;;0.10;0.10;;;11.60;86.60;;;;;;4937321;29;20019;-81
2023/12/24 09:02:39;;;;;;;0.17;0.17;;;11.70;86.50;;;;;;4935404;29;20036;-78
2023/12/24 09:05:09;;;;;;;0.10;0.10;;;11.80;86.30;;;;;;4935972;29;20028;-78
2023/12/24 09:07:34;;;;;;;0.20;0.20;;;11.80;86.40;;;;;;4937253;29;20031;-78
2023/12/24 09:10:01;;;;;;;0.10;0.10;;;11.80;86.30;;;;;;4934051;29;20028;-78
2023/12/24 09:12:27;;;;;;;0.10;0.10;;;11.80;86.20;;;;;;4939279;29;20455;-78
2023/12/24 09:14:53;;;;;;;0.10;0.10;;;11.90;86.30;;;;;;4939401;29;20063;-78
2023/12/24 09:17:18;;;;;;;0.10;0.10;;;11.90;86.10;;;;;;4938906;29;20034;-78
2023/12/24 09:19:44;;;;;;;0.10;0.10;;;11.90;86.10;;;;;;4938810;29;20042;-78
2023/12/24 09:22:09;;;;;;;0.10;0.10;;;12.00;86.10;;;;;;4939354;29;20030;-78
2023/12/24 09:24:35;;;;;;;0.10;0.10;;;12.00;85.80;;;;;;4939048;29;20032;-78
2023/12/24 09:27:01;;;;;;;0.10;0.10;;;12.10;85.70;;;;;;4936880;29;20023;-78
2023/12/24 09:29:27;;;;;;;0.20;0.20;;;12.20;85.70;;;;;;4937351;29;20031;-78
2023/12/24 09:31:52;;;;;;;0.10;0.10;;;12.20;85.60;;;;;;4937321;29;20063;-78
2023/12/24 09:34:18;;;;;;;0.10;0.10;;;12.20;85.30;;;;;;4938873;29;20035;-78
2023/12/24 09:36:44;;;;;;;0.10;0.10;;;12.30;85.30;;;;;;4936435;29;20115;-78
2023/12/24 09:39:10;;;;;;;0.10;0.10;;;12.40;85.30;;;;;;4938492;29;20554;-78
2023/12/24 09:41:39;;;;;;;0.20;0.20;;;12.50;84.90;;;;;;4933220;29;20106;-78
2023/12/24 09:44:07;;;;;;;0.10;0.10;;;12.60;84.70;;;;;;4937596;29;20031;-80
2023/12/24 09:46:33;;;;;;;0.10;0.10;;;12.80;84.60;;;;;;4924998;29;20040;-80
2023/12/24 09:48:59;;;;;;;0.10;0.10;;;12.90;84.40;;;;;;4922534;29;20028;-81
2023/12/24 09:51:25;;;;;;;0.10;0.10;;;12.80;84.10;;;;;;4934718;29;20031;-80
2023/12/24 09:53:53;;;;;;;0.10;0.10;;;12.80;84.10;;;;;;4930090;29;20027;-79
2023/12/24 09:56:19;;;;;;;0.10;0.10;;;12.90;83.90;;;;;;4936042;29;20024;-79
2023/12/24 09:58:46;;;;;;;0.10;0.10;;;12.90;83.90;;;;;;4937774;29;20039;-79
2023/12/24 10:01:11;;;;;;;0.10;0.10;;;12.80;83.90;;;;;;4934711;29;20031;-80
2023/12/24 10:03:37;;;;;;;0.10;0.10;;;12.80;83.90;;;;;;4934862;29;20402;-79
2023/12/24 10:06:04;;;;;;;0.10;0.10;;;12.70;84.00;;;;;;4938045;29;20028;-79
2023/12/24 10:08:35;;;;;;;0.10;0.10;;;12.70;84.00;;;;;;4938420;29;20117;-79
2023/12/24 10:11:33;;;;;;;0.10;0.10;;;12.70;84.10;;;;;;4933473;29;20028;-79
2023/12/24 10:14:00;;;;;;;0.10;0.10;;;12.70;83.90;;;;;;4936843;29;20027;-79
2023/12/24 10:16:27;;;;;;;0.10;0.10;;;12.70;84.10;;;;;;4938209;29;20023;-79
2023/12/24 10:18:55;;;;;;;0.10;0.10;;;12.80;84.10;;;;;;4937128;29;20027;-79
2023/12/24 10:21:21;;;;;;;0.10;0.10;;;12.80;84.10;;;;;;4938252;29;20071;-79
2023/12/24 10:23:46;;;;;;;0.10;0.10;;;12.80;83.90;;;;;;4938215;29;20051;-80
2023/12/24 10:26:12;;;;;;;0.10;0.10;;;12.80;83.80;;;;;;4938115;29;20042;-79
2023/12/24 10:28:50;;;;;;;0.10;0.10;;;12.80;83.80;;;;;;4937155;29;20032;-80
2023/12/24 10:31:15;;;;;;;0.10;0.10;;;12.80;83.80;;;;;;4934345;29;20052;-79
2023/12/24 10:33:41;;;;;;;0.10;0.10;;;12.80;83.80;;;;;;4935883;29;20034;-80
2023/12/24 10:36:08;;;;;;;0.10;0.10;;;12.80;83.80;;;;;;4937369;29;20027;-79
2023/12/24 10:38:34;;;;;;;0.15;0.15;;;12.80;83.60;;;;;;4936656;29;20047;-79
2023/12/24 10:41:01;;;;;;;0.10;0.10;;;12.90;83.70;;;;;;4936663;29;20499;-79
2023/12/24 10:43:27;;;;;;;0.10;0.10;;;13.00;83.60;;;;;;4937539;29;20032;-79
2023/12/24 10:45:53;;;;;;;0.10;0.10;;;13.00;83.40;;;;;;4937736;29;20008;-79
2023/12/24 10:48:19;;;;;;;0.10;0.10;;;13.00;83.30;;;;;;4935536;29;20031;-79
2023/12/24 10:50:45;;;;;;;0.10;0.10;;;13.00;83.10;;;;;;4936528;29;20028;-79
2023/12/24 10:53:13;;;;;;;0.10;0.10;;;13.00;83.20;;;;;;4937685;29;20028;-79
2023/12/24 10:55:41;;;;;;;0.10;0.10;;;13.00;83.20;;;;;;4936147;29;20083;-80
2023/12/24 10:58:31;;;;;;;0.10;0.10;;;13.10;83.00;;;;;;4935896;29;20047;-79
2023/12/24 11:01:08;;;;;;;0.10;0.10;;;13.10;83.00;;;;;;4935266;29;20023;-79
2023/12/24 11:03:48;;;;;;;0.10;0.10;;;13.10;82.80;;;;;;4934175;29;20028;-80
2023/12/24 11:06:39;;;;;;;0.10;0.10;;;13.20;82.80;;;;;;4937250;29;20062;-79
2023/12/24 11:09:29;;;;;;;0.10;0.10;;;13.20;82.60;;;;;;4936229;29;20124;-80
2023/12/24 11:11:55;;;;;;;0.10;0.10;;;13.30;82.40;;;;;;4927687;29;20119;-79
2023/12/24 11:14:36;;;;;;;0.10;0.10;;;13.40;82.40;;;;;;4937022;29;20115;-79
2023/12/24 11:17:02;;;;;;;0.10;0.10;;;13.40;82.20;;;;;;4934710;29;20035;-79
2023/12/24 11:19:28;;;;;;;0.10;0.10;;;13.40;82.20;;;;;;4937069;29;20032;-79
2023/12/24 11:22:11;;;;;;;0.10;0.10;;;13.40;82.10;;;;;;4935008;29;20024;-80
2023/12/24 11:24:42;;;;;;;0.10;0.10;;;13.30;82.20;;;;;;4935400;29;20042;-80
2023/12/24 11:27:08;;;;;;;0.10;0.10;;;13.20;82.40;;;;;;4933452;29;20084;-79
2023/12/24 11:29:47;;;;;;;0.10;0.10;;;13.10;82.40;;;;;;4937063;29;20016;-79
2023/12/24 11:32:25;;;;;;;0.10;0.10;;;13.10;82.60;;;;;;4932992;29;20036;-79
2023/12/24 11:34:58;;;;;;;0.10;0.10;;;13.20;82.60;;;;;;4934840;29;20164;-79
2023/12/24 11:37:34;;;;;;;0.10;0.10;;;13.30;82.30;;;;;;4936875;29;20019;-79
2023/12/24 11:40:07;;;;;;;0.10;0.10;;;13.30;82.30;;;;;;4940167;29;20027;-77
2023/12/24 11:42:40;;;;;;;;;;;13.30;82.30;;;;;;4935324;29;20062;-79
2023/12/24 11:45:06;;;;;;;0.10;0.10;;;13.30;82.50;;;;;;4937392;29;19915;-80
2023/12/24 11:47:33;;;;;;;0.10;0.10;;;13.40;82.30;;;;;;4917226;29;20067;-80
2023/12/24 11:49:59;;;;;;;0.10;0.10;;;13.50;82.00;;;;;;4917147;29;20035;-81
2023/12/24 11:52:26;;;;;;;0.10;0.10;;;13.60;82.00;;;;;;4932916;29;20028;-80
2023/12/24 11:54:52;;;;;;;0.20;0.20;;;13.70;81.90;;;;;;4916532;29;20028;-79
2023/12/24 11:57:26;;;;;;;0.10;0.10;;;13.80;81.60;;;;;;4939986;29;20043;-76
2023/12/24 11:59:52;;;;;;;0.10;0.10;;;13.90;81.10;;;;;;4921311;29;20111;-76
2023/12/24 12:02:18;;;;;;;0.10;0.10;;;13.90;81.00;;;;;;4900754;29;20123;-77
2023/12/24 12:04:44;;;;;;;0.10;0.10;;;14.00;80.90;;;;;;4927688;29;20684;-76
2023/12/24 12:07:09;;;;;;;0.10;0.10;;;14.10;80.80;;;;;;4919936;29;20035;-83
2023/12/24 12:09:35;;;;;;;0.10;0.10;;;14.10;80.70;;;;;;4939523;29;20032;-77
2023/12/24 12:12:00;;;;;;;0.10;0.10;;;14.10;80.90;;;;;;4917921;29;20055;-76
2023/12/24 12:14:26;;;;;;;0.10;0.10;;;14.10;80.60;;;;;;4917858;29;20055;-76
2023/12/24 12:16:52;;;;;;;0.10;0.10;;;14.00;80.60;;;;;;4917357;29;20475;-75
2023/12/24 12:19:17;;;;;;;0.10;0.10;;;14.10;80.80;;;;;;4932235;29;20043;-76
2023/12/24 12:21:44;;;;;;;0.10;0.10;;;14.20;80.40;;;;;;4932592;29;20087;-76
2023/12/24 12:24:09;;;;;;;0.10;0.10;;;14.30;80.20;;;;;;4919432;29;20043;-78
2023/12/24 12:26:36;;;;;;;0.10;0.10;;;14.50;79.70;;;;;;4936825;29;20031;-76
2023/12/24 12:29:02;;;;;;;0.10;0.10;;;14.70;79.20;;;;;;4921645;29;20467;-76
2023/12/24 12:31:28;;;;;;;0.10;0.10;;;14.80;78.60;;;;;;4910409;29;20060;-82
2023/12/24 12:33:54;;;;;;;0.10;0.10;;;14.90;78.00;;;;;;4934815;29;20082;-83
2023/12/24 12:36:19;;;;;;;0.10;0.10;;;15.00;77.40;;;;;;4933773;29;20036;-81
2023/12/24 12:38:45;;;;;;;0.10;0.10;;;15.00;77.10;;;;;;4935832;29;20020;-83
2023/12/24 12:41:10;;;;;;;0.10;0.10;;;15.00;77.60;;;;;;4933414;29;20407;-80
2023/12/24 12:43:40;;;;;;;0.10;0.10;;;15.10;76.70;;;;;;4934139;29;20044;-81
2023/12/24 12:46:06;;;;;;;0.10;0.10;;;15.00;76.50;;;;;;4932738;29;20054;-77
2023/12/24 12:48:31;;;;;;;0.10;0.10;;;14.90;76.60;;;;;;4932653;29;20020;-81
2023/12/24 12:50:57;;;;;;;0.10;0.10;;;14.90;76.90;;;;;;4933243;29;20052;-78
2023/12/24 12:53:26;;;;;;;0.10;0.10;;;14.70;76.90;;;;;;4930629;29;20031;-78
2023/12/24 12:56:02;;;;;;;0.10;0.10;;;14.70;77.20;;;;;;4934946;29;20419;-78
2023/12/24 12:58:29;;;;;;;0.10;0.10;;;14.60;77.20;;;;;;4935614;29;20489;-78
2023/12/24 13:01:00;;;;;;;0.10;0.10;;;14.60;77.20;;;;;;4934403;29;20035;-78
2023/12/24 13:03:26;;;;;;;0.10;0.10;;;14.60;77.10;;;;;;4936013;29;20031;-78
2023/12/24 13:05:54;;;;;;;0.10;0.10;;;14.70;77.00;;;;;;4935243;29;20028;-78
2023/12/24 13:08:20;;;;;;;0.08;0.08;;;14.90;76.80;;;;;;4933817;29;20063;-77
2023/12/24 13:10:46;;;;;;;0.10;0.10;;;15.00;76.50;;;;;;4934908;29;20038;-78
2023/12/24 13:13:26;;;;;;;0.10;0.10;;;15.00;76.10;;;;;;4932433;29;20444;-78
2023/12/24 13:16:07;;;;;;;0.10;0.10;;;14.90;76.00;;;;;;4919421;29;20024;-78
2023/12/24 13:18:33;;;;;;;0.10;0.10;;;14.90;76.30;;;;;;4934379;29;20020;-78
2023/12/24 13:21:04;;;;;;;0.10;0.10;;;14.80;76.20;;;;;;4935535;29;20122;-78
2023/12/24 13:23:30;;;;;;;0.10;0.10;;;14.70;76.40;;;;;;4935286;29;20028;-78
2023/12/24 13:25:56;;;;;;;0.10;0.10;;;14.80;76.20;;;;;;4935607;29;20103;-78
2023/12/24 13:28:23;;;;;;;0.10;0.10;;;15.00;76.10;;;;;;4940199;29;20020;-78
2023/12/24 13:30:50;;;;;;;0.10;0.10;;;15.00;76.00;;;;;;4938724;29;20048;-78
2023/12/24 13:33:16;;;;;;;0.10;0.10;;;15.10;75.10;;;;;;4939728;29;20399;-78
2023/12/24 13:35:44;;;;;;;0.10;0.10;;;15.10;75.10;;;;;;4937075;29;20507;-77
2023/12/24 13:38:16;;;;;;;0.10;0.10;;;15.10;75.30;;;;;;4938489;29;20032;-78
2023/12/24 13:40:42;;;;;;;0.10;0.10;;;15.20;75.50;;;;;;4940926;29;20043;-77
2023/12/24 13:43:09;;;;;;;0.08;0.08;;;15.10;75.10;;;;;;4938345;29;20032;-78
2023/12/24 13:45:38;;;;;;;0.10;0.10;;;15.00;75.50;;;;;;4940374;29;20047;-78
2023/12/24 13:48:06;;;;;;;0.10;0.10;;;14.90;75.80;;;;;;4938703;29;20084;-78
2023/12/24 13:50:32;;;;;;;0.10;0.10;;;14.80;75.80;;;;;;4939609;29;20030;-78
2023/12/24 13:52:59;;;;;;;0.10;0.10;;;14.70;76.20;;;;;;4930531;29;20028;-79
2023/12/24 13:55:32;;;;;;;0.10;0.10;;;14.60;76.20;;;;;;4921634;29;20555;-79
2023/12/24 13:57:58;;;;;;;;;;;14.70;76.40;;;;;;4921729;29;20063;-78
2023/12/24 14:00:26;;;;;;;0.10;0.10;;;14.60;76.30;;;;;;4936853;29;19911;-78
2023/12/24 14:02:51;;;;;;;0.10;0.10;;;14.60;76.50;;;;;;4929136;29;20031;-78
2023/12/24 14:05:17;;;;;;;0.10;0.10;;;14.60;76.50;;;;;;4926400;29;20621;-78
2023/12/24 14:07:43;;;;;;;0.10;0.10;;;14.60;76.70;;;;;;4920944;29;20043;-78
2023/12/24 14:10:11;;;;;;;0.10;0.10;;;14.60;76.50;;;;;;4921947;29;20028;-78
2023/12/24 14:12:38;;;;;;;0.00;0.00;;;14.60;76.50;;;;;;4921030;29;20507;-78
2023/12/24 14:15:06;;;;;;;0.10;0.10;;;14.50;76.40;;;;;;4921354;29;20079;-78
2023/12/24 14:17:32;;;;;;;0.10;0.10;;;14.50;76.20;;;;;;4936409;29;20024;-78
2023/12/24 14:19:58;;;;;;;0.10;0.10;;;14.50;76.20;;;;;;4921459;29;20024;-78
2023/12/24 14:22:23;;;;;;;0.10;0.10;;;14.50;75.90;;;;;;4921379;29;20046;-78
2023/12/24 14:24:50;;;;;;;0.10;0.10;;;14.50;76.10;;;;;;4921375;29;20435;-78
2023/12/24 14:27:17;;;;;;;0.10;0.10;;;14.60;76.10;;;;;;4920758;29;20422;-78
2023/12/24 14:29:42;;;;;;;0.10;0.10;;;14.60;76.00;;;;;;4935669;29;20499;-78
2023/12/24 14:32:08;;;;;;;0.10;0.10;;;14.60;76.00;;;;;;4922456;29;20218;-77
2023/12/24 14:34:34;;;;;;;0.10;0.10;;;14.60;76.20;;;;;;4939213;29;20035;-78
2023/12/24 14:36:59;;;;;;;0.10;0.10;;;14.60;76.10;;;;;;4929445;29;20047;-78
2023/12/24 14:39:27;;;;;;;0.08;0.08;;;14.60;76.30;;;;;;4930902;29;20070;-78
2023/12/24 14:41:53;;;;;;;0.10;0.10;;;14.60;76.20;;;;;;4940992;29;20023;-78
2023/12/24 14:44:19;;;;;;;0.10;0.10;;;14.50;76.10;;;;;;4939461;29;20034;-78
2023/12/24 14:46:45;;;;;;;0.10;0.10;;;14.50;76.30;;;;;;4936035;29;20056;-78
2023/12/24 14:49:11;;;;;;;0.05;0.05;;;14.50;76.10;;;;;;4939078;29;20031;-78
2023/12/24 14:51:36;;;;;;;0.10;0.10;;;14.50;76.30;;;;;;4928521;29;20608;-78
2023/12/24 14:54:02;;;;;;;0.10;0.10;;;14.50;76.40;;;;;;4928236;29;20032;-78
2023/12/24 14:56:28;;;;;;;0.10;0.10;;;14.60;76.10;;;;;;4922964;29;20030;-78
2023/12/24 14:58:54;;;;;;;0.10;0.10;;;14.70;76.20;;;;;;4938468;29;20035;-77
2023/12/24 15:01:19;;;;;;;0.10;0.10;;;14.70;76.10;;;;;;4920499;29;20032;-78
2023/12/24 15:03:45;;;;;;;0.10;0.10;;;14.70;76.00;;;;;;4933703;29;20028;-78
2023/12/24 15:06:11;;;;;;;0.10;0.10;;;14.70;75.90;;;;;;4934723;29;20035;-78
2023/12/24 15:08:36;;;;;;;0.10;0.10;;;14.70;76.20;;;;;;4932065;29;20020;-78
2023/12/24 15:11:02;;;;;;;0.10;0.10;;;14.60;76.20;;;;;;4937495;29;20562;-78
2023/12/24 15:13:28;;;;;;;0.10;0.10;;;14.50;76.60;;;;;;4917247;29;20052;-77
2023/12/24 15:15:54;;;;;;;0.10;0.10;;;14.50;76.70;;;;;;4936356;29;20040;-77
2023/12/24 15:18:19;;;;;;;0.10;0.10;;;14.50;77.10;;;;;;4939249;29;20027;-78
2023/12/24 15:20:45;;;;;;;0.10;0.10;;;14.50;77.30;;;;;;4938760;29;20031;-80
2023/12/24 15:23:10;;;;;;;0.10;0.10;;;14.40;77.40;;;;;;4930714;29;20571;-87
2023/12/24 15:25:36;;;;;;;0.00;0.00;;;14.30;77.60;;;;;;4922027;29;20505;-81
2023/12/24 15:28:02;;;;;;;0.10;0.10;;;14.30;78.00;;;;;;4929765;29;20028;-78
2023/12/24 15:30:28;;;;;;;0.10;0.10;;;14.30;78.20;;;;;;4914385;29;20047;-80
2023/12/24 15:32:54;;;;;;;0.10;0.10;;;14.30;78.00;;;;;;4926114;29;20411;-81
2023/12/24 15:35:20;;;;;;;0.05;0.05;;;14.30;78.20;;;;;;4920594;29;20028;-81
2023/12/24 15:37:46;;;;;;;0.10;0.10;;;14.30;78.00;;;;;;4930932;29;20012;-82
2023/12/24 15:40:12;;;;;;;0.10;0.10;;;14.30;78.20;;;;;;4930358;29;20043;-80
2023/12/24 15:42:37;;;;;;;0.10;0.10;;;14.20;78.20;;;;;;4920556;29;20032;-80
2023/12/24 15:45:03;;;;;;;0.00;0.00;;;14.30;78.30;;;;;;4929803;29;20103;-83
2023/12/24 15:47:29;;;;;;;0.10;0.10;;;14.20;78.40;;;;;;4920900;29;20031;-80
2023/12/24 15:49:55;;;;;;;0.10;0.10;;;14.20;78.40;;;;;;4931845;29;20034;-83
2023/12/24 15:52:22;;;;;;;0.10;0.10;;;14.20;78.40;;;;;;4937472;29;20023;-82
2023/12/24 15:54:51;;;;;;;0.10;0.10;;;14.10;78.60;;;;;;4918399;29;20024;-82
2023/12/24 15:57:18;;;;;;;0.10;0.10;;;14.10;78.70;;;;;;4937068;29;20034;-81
2023/12/24 15:59:44;;;;;;;0.10;0.10;;;14.10;78.80;;;;;;4918108;29;20495;-82
2023/12/24 16:02:12;;;;;;;0.10;0.10;;;14.10;79.00;;;;;;4936987;29;20106;-82
2023/12/24 16:04:41;;;;;;;0.10;0.10;;;14.00;78.90;;;;;;4935322;29;20028;-82
2023/12/24 16:07:06;;;;;;;0.10;0.10;;;14.00;78.90;;;;;;4917173;29;20098;-79
2023/12/24 16:09:32;;;;;;;0.10;0.10;;;13.90;78.90;;;;;;4936117;29;20111;-81
2023/12/24 16:11:57;;;;;;;0.10;0.10;;;13.80;79.10;;;;;;4936502;29;20402;-81
2023/12/24 16:14:23;;;;;;;0.10;0.10;;;13.90;79.20;;;;;;4935619;29;20035;-84
2023/12/24 16:16:49;;;;;;;0.10;0.10;;;13.90;79.30;;;;;;4935301;29;20023;-86
2023/12/24 16:19:14;;;;;;;0.10;0.10;;;13.90;79.40;;;;;;4911298;29;20038;-86
2023/12/24 16:21:40;;;;;;;0.00;0.00;;;13.90;79.30;;;;;;4936852;29;20042;-82
2023/12/24 16:24:07;;;;;;;0.10;0.10;;;13.80;79.40;;;;;;4936679;29;20035;-87
2023/12/24 16:26:33;;;;;;;0.10;0.10;;;13.80;79.40;;;;;;4936999;29;20042;-81
2023/12/24 16:28:59;;;;;;;0.10;0.10;;;13.80;79.50;;;;;;4932471;29;20965;-89
2023/12/24 16:31:25;;;;;;;0.10;0.10;;;13.70;79.70;;;;;;4925770;29;20523;-88
2023/12/24 16:33:51;;;;;;;0.10;0.10;;;13.60;80.00;;;;;;4920444;29;20546;-90
2023/12/24 16:36:22;;;;;;;0.10;0.10;;;13.60;80.10;;;;;;4935301;29;20034;-89
2023/12/24 16:38:52;;;;;;;0.10;0.10;;;13.60;80.20;;;;;;4931113;29;20028;-89
2023/12/24 16:41:22;;;;;;;0.00;0.00;;;13.50;80.30;;;;;;4950875;29;20520;-90
2023/12/24 16:43:48;;;;;;;0.10;0.10;;;13.60;80.40;;;;;;4930348;29;20119;-90
2023/12/24 16:46:14;;;;;;;0.10;0.10;;;13.60;80.40;;;;;;4919680;29;20486;-89
2023/12/24 16:48:40;;;;;;;0.10;0.10;;;13.50;80.50;;;;;;4938374;29;20028;-89
2023/12/24 16:51:06;;;;;;;0.10;0.10;;;13.60;80.50;;;;;;4927684;29;20035;-89
2023/12/24 16:53:31;;;;;;;0.10;0.10;;;13.50;80.60;;;;;;4938688;29;20028;-90
2023/12/24 16:56:02;;;;;;;0.05;0.05;;;13.50;80.60;;;;;;4930147;29;20024;-89
2023/12/24 16:58:29;;;;;;;0.10;0.10;;;13.50;80.60;;;;;;4914368;29;20115;-90
2023/12/24 17:00:54;;;;;;;0.13;0.13;;;13.60;80.60;;;;;;4915552;29;20060;-91
2023/12/24 17:03:20;;;;;;;0.10;0.10;;;13.50;80.50;;;;;;4941539;29;20031;-91
2023/12/24 17:05:45;;;;;;;0.10;0.10;;;13.50;80.70;;;;;;4934809;29;20107;-90
2023/12/24 17:08:11;;;;;;;0.10;0.10;;;13.50;80.70;;;;;;4940730;29;20031;-90
2023/12/24 17:10:37;;;;;;;0.10;0.10;;;13.50;80.70;;;;;;4935285;29;20024;-90
2023/12/24 17:13:03;;;;;;;0.10;0.10;;;13.50;80.60;;;;;;4934560;29;20039;-89
2023/12/24 17:15:29;;;;;;;0.10;0.10;;;13.50;80.70;;;;;;4931636;29;20091;-91
2023/12/24 17:17:54;;;;;;;0.10;0.10;;;13.50;80.60;;;;;;4935733;29;20028;-89
2023/12/24 17:20:22;;;;;;;0.10;0.10;;;13.50;80.60;;;;;;4940631;29;20024;-90
2023/12/24 17:22:48;;;;;;;0.10;0.10;;;13.50;80.60;;;;;;4935574;29;20055;-92
2023/12/24 17:25:13;;;;;;;0.10;0.10;;;13.50;80.60;;;;;;4936362;29;20038;-91
2023/12/24 17:27:39;;;;;;;0.10;0.10;;;13.50;80.60;;;;;;4935491;29;20443;-91
2023/12/24 17:30:05;;;;;;;0.10;0.10;;;13.50;80.60;;;;;;4930624;29;20483;-92
2023/12/24 17:32:31;;;;;;;0.10;0.10;;;13.60;80.50;;;;;;4932002;29;20056;-92
2023/12/24 17:34:56;;;;;;;0.03;0.03;;;13.50;80.50;;;;;;4936026;29;20062;-92
2023/12/24 17:37:22;;;;;;;0.10;0.10;;;13.60;80.50;;;;;;4941878;29;20103;-91
2023/12/24 17:39:48;;;;;;;0.10;0.10;;;13.50;80.30;;;;;;4940127;29;20114;-91
2023/12/24 17:42:13;;;;;;;0.10;0.10;;;13.50;80.50;;;;;;4949163;29;20528;-92
2023/12/24 17:44:39;;;;;;;0.10;0.10;;;13.50;80.50;;;;;;4941593;29;20032;-92
2023/12/24 17:47:04;;;;;;;0.10;0.10;;;13.50;80.40;;;;;;4935976;29;20492;-92
2023/12/24 17:49:32;;;;;;;0.10;0.10;;;13.50;80.30;;;;;;4937565;29;20039;-93
2023/12/24 17:51:58;;;;;;;0.08;0.08;;;13.50;80.20;;;;;;4935191;29;20102;-93
2023/12/24 17:54:24;;;;;;;0.10;0.10;;;13.50;80.20;;;;;;4935629;29;20112;-93
2023/12/24 17:56:50;;;;;;;0.10;0.10;;;13.50;80.20;;;;;;4942561;29;20881;-92
2023/12/24 17:59:16;;;;;;;0.10;0.10;;;13.50;80.20;;;;;;4935707;29;20430;-93
2023/12/24 18:01:42;;;;;;;0.10;0.10;;;13.50;80.20;;;;;;4953570;29;20035;-92
2023/12/24 18:04:08;;;;;;;0.10;0.10;;;13.50;80.20;;;;;;4933938;29;20397;-92
2023/12/24 18:06:33;;;;;;;0.10;0.10;;;13.50;80.30;;;;;;4937321;29;20372;-92
2023/12/24 18:08:59;;;;;;;0.10;0.10;;;13.50;80.30;;;;;;4936116;29;20035;-93
2023/12/24 18:11:25;;;;;;;0.10;0.10;;;13.50;80.30;;;;;;4940791;29;20111;-93
2023/12/24 18:13:50;;;;;;;0.10;0.10;;;13.50;80.30;;;;;;4936845;29;20027;-93
2023/12/24 18:16:16;;;;;;;0.10;0.10;;;13.50;80.30;;;;;;4937097;29;20035;-93